Dublin, Ireland

9:48 AM IST on September 22, 2014 (GMT +0100)
Kilsallaghan, Dublin | Change Station
CLOSE
Current Station
Personal Weather Station
Location: Dublin, DUBLIN
Elevation: 174 ft
Nearby Weather Stations

Elev 174 ft 53.48 °N, 6.30 °W | Updated 2 minutes ago

Scattered Clouds
Scattered Clouds
58.3 °F
Feels Like 58.3 °F
N
6.0
Wind Variable Wind from NE
Gusts 8.0 mph

Today
High -- | Low -- °F
--% Chance of Precip.
Yesterday
High -- | Low -- °F
Precip. -- in
7:10 AM 7:23 PM
Waning Crescent, 3% visible
Pressure 30.30 in
Visibility 6.2 miles
Clouds Few 3500 ft
Scattered Clouds 24000 ft
Dew Point 51 °F
Humidity 77%
Rainfall 0.00 in
Snow Depth Not available.
UV 1 out of 12
Pollen Not available.
Air Quality Not available.
Flu Activity Not available.
METAR EIDW 220830Z 26007KT 9999 FEW035 SCT240 12/09 Q1026 NOSIG

More Conditions Fewer Conditions

Pressure 30.30 in
Visibility 6.2 miles
Clouds Few 3500 ft
Scattered Clouds 24000 ft
Dew Point 51 °F
Humidity 77%
Rainfall 0.00 in
Snow Depth Not available.
UV 1 out of 12
Pollen Not available.
Air Quality Not available.
Flu Activity Not available.
METAR EIDW 220830Z 26007KT 9999 FEW035 SCT240 12/09 Q1026 NOSIG

More Conditions Fewer Conditions

10-Day Weather Forecast

Almanac

Astronomy

Sep. 22, 2014 Rise Set
Actual Time 7:10 AM IST 7:23 PM IST
Civil Twilight 6:35 AM IST 7:58 PM IST
Nautical Twilight 5:54 AM IST 8:39 PM IST
Astronomical Twilight 5:10 AM IST 9:23 PM IST
Moon 5:15 AM IST 6:30 PM IST
Length of Visible Light 13h 23m
Length of Day
12h 13m
Tomorrow will be 4m 12s shorter.
Waning Crescent, 3% of the Moon is Illuminated
Today
Waning Crescent
Sep 24
New
Oct 1
First Quarter
Oct 8
Full
Oct 15
Last Quarter

Yesterday's Extremes

Country Highs Country Lows

Community

WunderPhotos

Upload Photos

1,755,402 photos uploaded!

Nearby

Snow Depth

Not available.

Earthquake Activity

City Distance Mag. Time & Date
No recent earthquake activity has been reported nearby.
Minimum magnitude displayed is 2.5.

Coastal Water Temperatures

Place Temperature
No Stations Reporting

Nearby Weather Stations